sensor_id;sensor_type;location;lat;lon;timestamp;pressure;altitude;pressure_sealevel;temperature;humidity
74921;BME280;63483;47.384;8.860;2024-01-30T00:00:04;96019.44;;;-0.41;49.90
74921;BME280;63483;47.384;8.860;2024-01-30T00:02:31;96015.97;;;-0.40;49.99
74921;BME280;63483;47.384;8.860;2024-01-30T00:04:56;96021.91;;;-0.39;50.32
74921;BME280;63483;47.384;8.860;2024-01-30T00:07:22;96017.50;;;-0.37;50.27
74921;BME280;63483;47.384;8.860;2024-01-30T00:09:47;96014.03;;;-0.36;49.90
74921;BME280;63483;47.384;8.860;2024-01-30T00:12:13;96014.69;;;-0.33;50.01
74921;BME280;63483;47.384;8.860;2024-01-30T00:14:41;96016.38;;;-0.32;49.45
74921;BME280;63483;47.384;8.860;2024-01-30T00:17:06;96012.97;;;-0.32;49.44
74921;BME280;63483;47.384;8.860;2024-01-30T00:19:32;96007.84;;;-0.32;49.48
74921;BME280;63483;47.384;8.860;2024-01-30T00:21:57;96010.41;;;-0.32;49.15
74921;BME280;63483;47.384;8.860;2024-01-30T00:24:22;96007.84;;;-0.32;49.90
74921;BME280;63483;47.384;8.860;2024-01-30T00:26:47;96012.81;;;-0.29;49.23
74921;BME280;63483;47.384;8.860;2024-01-30T00:29:13;96014.50;;;-0.28;49.77
74921;BME280;63483;47.384;8.860;2024-01-30T00:31:44;96015.41;;;-0.29;49.81
74921;BME280;63483;47.384;8.860;2024-01-30T00:34:09;96012.81;;;-0.29;48.93
74921;BME280;63483;47.384;8.860;2024-01-30T00:36:35;96010.41;;;-0.32;49.15
74921;BME280;63483;47.384;8.860;2024-01-30T00:39:00;96016.47;;;-0.33;49.46
74921;BME280;63483;47.384;8.860;2024-01-30T00:41:25;96006.97;;;-0.33;49.31
74921;BME280;63483;47.384;8.860;2024-01-30T00:43:51;96013.81;;;-0.32;49.28
74921;BME280;63483;47.384;8.860;2024-01-30T00:46:17;96007.84;;;-0.32;49.57
74921;BME280;63483;47.384;8.860;2024-01-30T00:48:42;96013.81;;;-0.32;50.05
74921;BME280;63483;47.384;8.860;2024-01-30T00:51:07;96013.31;;;-0.38;49.26
74921;BME280;63483;47.384;8.860;2024-01-30T00:53:33;96008.88;;;-0.36;49.31
74921;BME280;63483;47.384;8.860;2024-01-30T00:55:58;96010.47;;;-0.34;49.66
74921;BME280;63483;47.384;8.860;2024-01-30T00:58:23;96006.91;;;-0.31;49.04
74921;BME280;63483;47.384;8.860;2024-01-30T01:00:49;96006.91;;;-0.31;49.75
74921;BME280;63483;47.384;8.860;2024-01-30T01:03:14;96014.50;;;-0.28;49.31
74921;BME280;63483;47.384;8.860;2024-01-30T01:05:39;96010.97;;;-0.27;49.17
74921;BME280;63483;47.384;8.860;2024-01-30T01:08:05;96022.13;;;-0.26;49.19
74921;BME280;63483;47.384;8.860;2024-01-30T01:10:30;96014.34;;;-0.25;49.86
74921;BME280;63483;47.384;8.860;2024-01-30T01:12:55;96017.56;;;-0.21;49.59
74921;BME280;63483;47.384;8.860;2024-01-30T01:15:21;96018.38;;;-0.21;49.32
74921;BME280;63483;47.384;8.860;2024-01-30T01:17:46;96013.16;;;-0.19;49.38
74921;BME280;63483;47.384;8.860;2024-01-30T01:20:11;96010.50;;;-0.18;49.25
74921;BME280;63483;47.384;8.860;2024-01-30T01:22:37;96019.00;;;-0.16;49.05
74921;BME280;63483;47.384;8.860;2024-01-30T01:25:04;96015.53;;;-0.15;49.26
74921;BME280;63483;47.384;8.860;2024-01-30T01:27:32;96012.00;;;-0.14;49.76
74921;BME280;63483;47.384;8.860;2024-01-30T01:29:58;96016.19;;;-0.11;49.16
74921;BME280;63483;47.384;8.860;2024-01-30T01:32:23;96015.34;;;-0.11;49.00
74921;BME280;63483;47.384;8.860;2024-01-30T01:34:48;96012.69;;;-0.10;49.71
74921;BME280;63483;47.384;8.860;2024-01-30T01:37:14;96009.19;;;-0.09;49.31
74921;BME280;63483;47.384;8.860;2024-01-30T01:39:39;96014.34;;;-0.09;48.75
74921;BME280;63483;47.384;8.860;2024-01-30T01:42:04;96010.03;;;-0.08;48.94
74921;BME280;63483;47.384;8.860;2024-01-30T01:44:29;96016.00;;;-0.08;48.72
74921;BME280;63483;47.384;8.860;2024-01-30T01:46:56;96013.34;;;-0.06;49.03
74921;BME280;63483;47.384;8.860;2024-01-30T01:49:24;96005.72;;;-0.08;48.74
74921;BME280;63483;47.384;8.860;2024-01-30T01:51:51;96004.91;;;-0.08;49.12
74921;BME280;63483;47.384;8.860;2024-01-30T01:54:19;96014.34;;;-0.09;49.12
74921;BME280;63483;47.384;8.860;2024-01-30T01:56:45;96005.44;;;-0.53;50.62
74921;BME280;63483;47.384;8.860;2024-01-30T01:59:10;96004.59;;;-1.42;43.47
74921;BME280;63483;47.384;8.860;2024-01-30T02:01:36;96007.44;;;-2.04;43.12
74921;BME280;63483;47.384;8.860;2024-01-30T02:04:02;96001.72;;;-2.30;44.76
74921;BME280;63483;47.384;8.860;2024-01-30T02:06:27;96003.78;;;-2.38;46.97
74921;BME280;63483;47.384;8.860;2024-01-30T02:08:53;96008.63;;;-1.92;47.84
74921;BME280;63483;47.384;8.860;2024-01-30T02:11:20;96011.91;;;-2.68;56.73
74921;BME280;63483;47.384;8.860;2024-01-30T02:13:45;96007.34;;;-3.24;48.74
74921;BME280;63483;47.384;8.860;2024-01-30T02:16:10;96009.28;;;-3.74;48.30
74921;BME280;63483;47.384;8.860;2024-01-30T02:18:36;96005.47;;;-4.09;48.97
74921;BME280;63483;47.384;8.860;2024-01-30T02:21:07;96012.47;;;-4.38;48.74
74921;BME280;63483;47.384;8.860;2024-01-30T02:23:33;96020.75;;;-4.55;49.63
74921;BME280;63483;47.384;8.860;2024-01-30T02:25:58;96016.16;;;-4.70;49.79
74921;BME280;63483;47.384;8.860;2024-01-30T02:28:24;96026.03;;;-4.85;49.30
74921;BME280;63483;47.384;8.860;2024-01-30T02:30:49;96021.28;;;-4.97;50.02
74921;BME280;63483;47.384;8.860;2024-01-30T02:33:15;96019.19;;;-4.84;51.44
74921;BME280;63483;47.384;8.860;2024-01-30T02:35:40;96017.59;;;-4.89;51.54
74921;BME280;63483;47.384;8.860;2024-01-30T02:38:05;96012.19;;;-5.04;49.77
74921;BME280;63483;47.384;8.860;2024-01-30T02:40:31;96019.16;;;-5.10;49.57
74921;BME280;63483;47.384;8.860;2024-01-30T02:42:58;96010.81;;;-5.15;49.79
74921;BME280;63483;47.384;8.860;2024-01-30T02:45:24;96004.91;;;-5.17;48.89
74921;BME280;63483;47.384;8.860;2024-01-30T02:47:49;96009.25;;;-5.19;48.14
74921;BME280;63483;47.384;8.860;2024-01-30T02:50:14;96006.09;;;-5.27;47.68
74921;BME280;63483;47.384;8.860;2024-01-30T02:52:40;96005.16;;;-5.25;48.54
74921;BME280;63483;47.384;8.860;2024-01-30T02:55:06;95999.91;;;-5.20;48.20
74921;BME280;63483;47.384;8.860;2024-01-30T02:57:31;96004.03;;;-5.16;47.72
74921;BME280;63483;47.384;8.860;2024-01-30T02:59:56;96001.53;;;-5.17;47.49
74921;BME280;63483;47.384;8.860;2024-01-30T03:02:22;96000.50;;;-5.12;48.52
74921;BME280;63483;47.384;8.860;2024-01-30T03:04:47;95998.28;;;-4.97;47.97
74921;BME280;63483;47.384;8.860;2024-01-30T03:07:12;96003.00;;;-4.60;48.38
74921;BME280;63483;47.384;8.860;2024-01-30T03:09:38;95989.56;;;-4.41;46.43
74921;BME280;63483;47.384;8.860;2024-01-30T03:12:04;96002.81;;;-4.06;49.62
74921;BME280;63483;47.384;8.860;2024-01-30T03:14:32;95993.97;;;-4.21;59.42
74921;BME280;63483;47.384;8.860;2024-01-30T03:16:58;96000.28;;;-4.55;56.09
74921;BME280;63483;47.384;8.860;2024-01-30T03:19:23;95999.03;;;-4.94;53.37
74921;BME280;63483;47.384;8.860;2024-01-30T03:21:49;95995.28;;;-5.09;52.05
74921;BME280;63483;47.384;8.860;2024-01-30T03:24:15;95991.06;;;-5.36;51.35
74921;BME280;63483;47.384;8.860;2024-01-30T03:26:40;95986.56;;;-5.55;51.74
74921;BME280;63483;47.384;8.860;2024-01-30T03:29:05;95995.09;;;-5.56;52.39
74921;BME280;63483;47.384;8.860;2024-01-30T03:31:31;95986.03;;;-5.66;53.08
74921;BME280;63483;47.384;8.860;2024-01-30T03:33:56;95986.09;;;-5.68;52.71
74921;BME280;63483;47.384;8.860;2024-01-30T03:36:22;95993.50;;;-5.60;52.10
74921;BME280;63483;47.384;8.860;2024-01-30T03:38:47;95986.56;;;-5.55;51.99
74921;BME280;63483;47.384;8.860;2024-01-30T03:41:12;95993.22;;;-5.51;52.00
74921;BME280;63483;47.384;8.860;2024-01-30T03:43:38;95985.50;;;-5.49;51.17
74921;BME280;63483;47.384;8.860;2024-01-30T03:46:03;95977.47;;;-5.64;50.83
74921;BME280;63483;47.384;8.860;2024-01-30T03:48:29;95980.31;;;-5.74;50.52
74921;BME280;63483;47.384;8.860;2024-01-30T03:50:55;95992.50;;;-5.83;50.78
74921;BME280;63483;47.384;8.860;2024-01-30T03:53:20;95991.66;;;-5.83;50.63
74921;BME280;63483;47.384;8.860;2024-01-30T03:55:45;95986.59;;;-5.85;49.63
74921;BME280;63483;47.384;8.860;2024-01-30T03:58:11;95988.97;;;-5.79;49.70
74921;BME280;63483;47.384;8.860;2024-01-30T04:00:36;95986.09;;;-5.68;49.97
74921;BME280;63483;47.384;8.860;2024-01-30T04:03:01;95988.69;;;-5.69;49.04
74921;BME280;63483;47.384;8.860;2024-01-30T04:05:27;95987.34;;;-5.53;49.57
74921;BME280;63483;47.384;8.860;2024-01-30T04:07:52;95987.75;;;-5.38;49.88
74921;BME280;63483;47.384;8.860;2024-01-30T04:10:17;95993.59;;;-5.10;51.82
74921;BME280;63483;47.384;8.860;2024-01-30T04:12:43;95992.22;;;-4.44;55.25
74921;BME280;63483;47.384;8.860;2024-01-30T04:15:08;95986.16;;;-3.94;54.46
74921;BME280;63483;47.384;8.860;2024-01-30T04:17:34;95986.44;;;-3.56;53.38
74921;BME280;63483;47.384;8.860;2024-01-30T04:19:59;95986.91;;;-3.26;53.50
74921;BME280;63483;47.384;8.860;2024-01-30T04:22:24;95984.19;;;-3.01;52.85
74921;BME280;63483;47.384;8.860;2024-01-30T04:24:50;95989.25;;;-2.79;53.13
74921;BME280;63483;47.384;8.860;2024-01-30T04:27:15;95982.50;;;-2.61;52.63
74921;BME280;63483;47.384;8.860;2024-01-30T04:29:40;95981.88;;;-2.45;53.00
74921;BME280;63483;47.384;8.860;2024-01-30T04:32:06;95977.03;;;-2.32;52.81
74921;BME280;63483;47.384;8.860;2024-01-30T04:34:31;95980.91;;;-2.23;52.03
74921;BME280;63483;47.384;8.860;2024-01-30T04:36:57;95981.25;;;-2.12;52.55
74921;BME280;63483;47.384;8.860;2024-01-30T04:39:22;95985.97;;;-2.03;52.57
74921;BME280;63483;47.384;8.860;2024-01-30T04:41:47;95982.44;;;-2.00;52.35
74921;BME280;63483;47.384;8.860;2024-01-30T04:44:13;95976.88;;;-1.91;51.98
74921;BME280;63483;47.384;8.860;2024-01-30T04:46:39;95985.75;;;-1.79;52.07
74921;BME280;63483;47.384;8.860;2024-01-30T04:49:04;95971.75;;;-1.72;51.81
74921;BME280;63483;47.384;8.860;2024-01-30T04:51:29;95980.06;;;-1.67;52.25
74921;BME280;63483;47.384;8.860;2024-01-30T04:53:55;95974.66;;;-1.61;51.95
74921;BME280;63483;47.384;8.860;2024-01-30T04:56:20;95975.19;;;-1.54;51.68
74921;BME280;63483;47.384;8.860;2024-01-30T04:58:45;95982.63;;;-1.48;51.88
74921;BME280;63483;47.384;8.860;2024-01-30T05:01:15;95973.59;;;-1.39;51.06
74921;BME280;63483;47.384;8.860;2024-01-30T05:03:41;95968.34;;;-1.36;50.73
74921;BME280;63483;47.384;8.860;2024-01-30T05:06:06;95980.13;;;-1.32;50.53
74921;BME280;63483;47.384;8.860;2024-01-30T05:08:31;95974.84;;;-1.29;50.59
74921;BME280;63483;47.384;8.860;2024-01-30T05:11:00;95976.50;;;-1.28;50.76
74921;BME280;63483;47.384;8.860;2024-01-30T05:13:25;95977.34;;;-1.27;50.77
74921;BME280;63483;47.384;8.860;2024-01-30T05:15:50;95981.34;;;-1.22;50.19
74921;BME280;63483;47.384;8.860;2024-01-30T05:18:16;95993.31;;;-1.21;50.28
74921;BME280;63483;47.384;8.860;2024-01-30T05:20:41;95989.84;;;-1.20;50.17
74921;BME280;63483;47.384;8.860;2024-01-30T05:23:06;95998.31;;;-1.17;50.82
74921;BME280;63483;47.384;8.860;2024-01-30T05:25:32;95998.97;;;-1.14;50.55
74921;BME280;63483;47.384;8.860;2024-01-30T05:27:57;95996.34;;;-1.12;49.72
74921;BME280;63483;47.384;8.860;2024-01-30T05:30:22;96003.91;;;-1.09;49.77
74921;BME280;63483;47.384;8.860;2024-01-30T05:32:47;96002.09;;;-1.07;50.00
74921;BME280;63483;47.384;8.860;2024-01-30T05:35:13;96008.13;;;-1.08;50.38
74921;BME280;63483;47.384;8.860;2024-01-30T05:37:38;96009.81;;;-1.07;49.89
74921;BME280;63483;47.384;8.860;2024-01-30T05:40:04;96005.56;;;-1.08;49.93
74921;BME280;63483;47.384;8.860;2024-01-30T05:42:30;96011.47;;;-1.06;50.35
74921;BME280;63483;47.384;8.860;2024-01-30T05:44:55;96012.38;;;-1.07;49.70
74921;BME280;63483;47.384;8.860;2024-01-30T05:47:20;96016.63;;;-1.06;50.39
74921;BME280;63483;47.384;8.860;2024-01-30T05:49:46;96007.16;;;-1.06;50.44
74921;BME280;63483;47.384;8.860;2024-01-30T05:52:11;96015.69;;;-1.05;50.10
74921;BME280;63483;47.384;8.860;2024-01-30T05:54:36;96014.94;;;-1.07;49.96
74921;BME280;63483;47.384;8.860;2024-01-30T05:57:02;96013.13;;;-1.05;49.35
74921;BME280;63483;47.384;8.860;2024-01-30T05:59:27;96023.41;;;-1.05;50.14
74921;BME280;63483;47.384;8.860;2024-01-30T06:01:52;96022.66;;;-1.07;50.19
74921;BME280;63483;47.384;8.860;2024-01-30T06:04:18;96018.41;;;-1.08;49.88
74921;BME280;63483;47.384;8.860;2024-01-30T06:06:44;96023.50;;;-1.07;49.74
74921;BME280;63483;47.384;8.860;2024-01-30T06:09:09;96020.09;;;-1.07;50.27
74921;BME280;63483;47.384;8.860;2024-01-30T06:11:34;96028.56;;;-1.05;49.89
74921;BME280;63483;47.384;8.860;2024-01-30T06:14:00;96019.28;;;-1.08;50.17
74921;BME280;63483;47.384;8.860;2024-01-30T06:16:25;96027.81;;;-1.07;50.19
74921;BME280;63483;47.384;8.860;2024-01-30T06:18:54;96019.28;;;-1.08;49.80
74921;BME280;63483;47.384;8.860;2024-01-30T06:21:20;96032.06;;;-1.06;49.82
74921;BME280;63483;47.384;8.860;2024-01-30T06:23:45;96022.44;;;-1.57;51.70
74921;BME280;63483;47.384;8.860;2024-01-30T06:26:11;96027.16;;;-2.25;43.61
74921;BME280;63483;47.384;8.860;2024-01-30T06:28:36;96020.56;;;-2.91;43.25
74921;BME280;63483;47.384;8.860;2024-01-30T06:31:01;96019.19;;;-3.42;43.30
74921;BME280;63483;47.384;8.860;2024-01-30T06:33:26;96020.72;;;-3.38;47.33
74921;BME280;63483;47.384;8.860;2024-01-30T06:35:52;96025.47;;;-3.29;56.55
74921;BME280;63483;47.384;8.860;2024-01-30T06:38:17;96031.78;;;-3.82;54.14
74921;BME280;63483;47.384;8.860;2024-01-30T06:40:42;96036.06;;;-4.30;50.86
74921;BME280;63483;47.384;8.860;2024-01-30T06:43:08;96034.63;;;-4.62;50.38
74921;BME280;63483;47.384;8.860;2024-01-30T06:45:33;96036.34;;;-4.88;50.75
74921;BME280;63483;47.384;8.860;2024-01-30T06:48:00;96040.88;;;-4.96;52.05
74921;BME280;63483;47.384;8.860;2024-01-30T06:50:25;96040.00;;;-5.22;51.05
74921;BME280;63483;47.384;8.860;2024-01-30T06:52:51;96046.50;;;-5.12;54.07
74921;BME280;63483;47.384;8.860;2024-01-30T06:55:16;96040.09;;;-5.25;53.65
74921;BME280;63483;47.384;8.860;2024-01-30T06:57:41;96043.91;;;-5.38;52.78
74921;BME280;63483;47.384;8.860;2024-01-30T07:00:07;96045.66;;;-5.40;51.50
74921;BME280;63483;47.384;8.860;2024-01-30T07:02:33;96052.03;;;-5.54;50.69
74921;BME280;63483;47.384;8.860;2024-01-30T07:04:58;96049.97;;;-5.69;50.50
74921;BME280;63483;47.384;8.860;2024-01-30T07:07:23;96048.19;;;-5.67;51.13
74921;BME280;63483;47.384;8.860;2024-01-30T07:09:49;96053.28;;;-5.67;50.23
74921;BME280;63483;47.384;8.860;2024-01-30T07:12:17;96058.97;;;-5.57;50.38
74921;BME280;63483;47.384;8.860;2024-01-30T07:14:42;96046.69;;;-5.46;50.27
74921;BME280;63483;47.384;8.860;2024-01-30T07:17:08;96058.75;;;-5.23;53.06
74921;BME280;63483;47.384;8.860;2024-01-30T07:19:33;96049.81;;;-5.10;50.11
74921;BME280;63483;47.384;8.860;2024-01-30T07:22:00;96054.47;;;-5.22;48.59
74921;BME280;63483;47.384;8.860;2024-01-30T07:24:26;96053.66;;;-5.23;48.73
74921;BME280;63483;47.384;8.860;2024-01-30T07:26:52;96067.84;;;-5.14;48.69
74921;BME280;63483;47.384;8.860;2024-01-30T07:29:17;96063.66;;;-5.17;48.18
74921;BME280;63483;47.384;8.860;2024-01-30T07:31:42;96070.25;;;-5.10;48.49
74921;BME280;63483;47.384;8.860;2024-01-30T07:34:08;96062.72;;;-4.87;47.11
74921;BME280;63483;47.384;8.860;2024-01-30T07:36:34;96063.63;;;-4.63;48.25
74921;BME280;63483;47.384;8.860;2024-01-30T07:38:59;96070.22;;;-4.31;51.57
74921;BME280;63483;47.384;8.860;2024-01-30T07:41:24;96076.00;;;-4.26;59.23
74921;BME280;63483;47.384;8.860;2024-01-30T07:43:50;96073.56;;;-4.79;56.98
74921;BME280;63483;47.384;8.860;2024-01-30T07:46:15;96083.47;;;-5.23;53.23
74921;BME280;63483;47.384;8.860;2024-01-30T07:48:41;96071.59;;;-5.53;52.55
74921;BME280;63483;47.384;8.860;2024-01-30T07:51:06;96076.31;;;-5.69;53.31
74921;BME280;63483;47.384;8.860;2024-01-30T07:53:31;96074.25;;;-5.86;53.34
74921;BME280;63483;47.384;8.860;2024-01-30T07:55:57;96072.84;;;-5.96;53.63
74921;BME280;63483;47.384;8.860;2024-01-30T07:58:22;96077.28;;;-6.03;52.84
74921;BME280;63483;47.384;8.860;2024-01-30T08:00:49;96080.69;;;-6.02;53.53
74921;BME280;63483;47.384;8.860;2024-01-30T08:03:14;96080.03;;;-6.10;53.96
74921;BME280;63483;47.384;8.860;2024-01-30T08:05:41;96085.94;;;-6.08;54.06
74921;BME280;63483;47.384;8.860;2024-01-30T08:08:07;96086.72;;;-6.06;54.28
74921;BME280;63483;47.384;8.860;2024-01-30T08:10:32;96087.44;;;-6.01;53.31
74921;BME280;63483;47.384;8.860;2024-01-30T08:12:57;96079.53;;;-5.92;53.70
74921;BME280;63483;47.384;8.860;2024-01-30T08:15:22;96070.38;;;-5.69;53.49
74921;BME280;63483;47.384;8.860;2024-01-30T08:17:48;96080.78;;;-5.47;52.61
74921;BME280;63483;47.384;8.860;2024-01-30T08:20:13;96078.50;;;-5.28;52.38
74921;BME280;63483;47.384;8.860;2024-01-30T08:22:39;96078.13;;;-5.16;52.19
74921;BME280;63483;47.384;8.860;2024-01-30T08:25:06;96072.72;;;-5.07;51.59
74921;BME280;63483;47.384;8.860;2024-01-30T08:27:31;96074.00;;;-4.93;50.36
74921;BME280;63483;47.384;8.860;2024-01-30T08:29:56;96071.28;;;-4.89;50.34
74921;BME280;63483;47.384;8.860;2024-01-30T08:32:22;96077.81;;;-4.80;48.54
74921;BME280;63483;47.384;8.860;2024-01-30T08:34:48;96074.59;;;-4.60;50.12
74921;BME280;63483;47.384;8.860;2024-01-30T08:37:14;96074.50;;;-4.31;48.79
74921;BME280;63483;47.384;8.860;2024-01-30T08:39:41;96080.53;;;-4.09;49.99
74921;BME280;63483;47.384;8.860;2024-01-30T08:42:07;96078.66;;;-4.04;49.55
74921;BME280;63483;47.384;8.860;2024-01-30T08:44:33;96077.91;;;-3.84;49.79
74921;BME280;63483;47.384;8.860;2024-01-30T08:46:58;96076.00;;;-3.55;51.59
74921;BME280;63483;47.384;8.860;2024-01-30T08:49:23;96078.78;;;-3.15;54.83
74921;BME280;63483;47.384;8.860;2024-01-30T08:51:49;96081.56;;;-3.67;61.88
74921;BME280;63483;47.384;8.860;2024-01-30T08:54:15;96076.97;;;-4.05;54.62
74921;BME280;63483;47.384;8.860;2024-01-30T08:56:40;96080.75;;;-4.40;53.99
74921;BME280;63483;47.384;8.860;2024-01-30T08:59:06;96085.78;;;-4.62;54.57
74921;BME280;63483;47.384;8.860;2024-01-30T09:01:31;96090.59;;;-4.80;54.48
74921;BME280;63483;47.384;8.860;2024-01-30T09:03:56;96085.94;;;-4.94;53.73
74921;BME280;63483;47.384;8.860;2024-01-30T09:06:22;96090.50;;;-5.03;54.16
74921;BME280;63483;47.384;8.860;2024-01-30T09:08:47;96094.22;;;-5.14;53.81
74921;BME280;63483;47.384;8.860;2024-01-30T09:11:13;96083.84;;;-5.08;53.88
74921;BME280;63483;47.384;8.860;2024-01-30T09:13:39;96091.34;;;-5.03;54.66
74921;BME280;63483;47.384;8.860;2024-01-30T09:16:05;96088.69;;;-5.00;54.31
74921;BME280;63483;47.384;8.860;2024-01-30T09:18:30;96090.28;;;-4.97;53.25
74921;BME280;63483;47.384;8.860;2024-01-30T09:20:56;96087.78;;;-4.99;52.89
74921;BME280;63483;47.384;8.860;2024-01-30T09:23:21;96083.94;;;-4.85;53.14
74921;BME280;63483;47.384;8.860;2024-01-30T09:25:47;96077.91;;;-4.83;53.23
74921;BME280;63483;47.384;8.860;2024-01-30T09:28:12;96089.72;;;-4.79;53.10
74921;BME280;63483;47.384;8.860;2024-01-30T09:30:38;96086.91;;;-4.71;52.45
74921;BME280;63483;47.384;8.860;2024-01-30T09:33:03;96084.63;;;-4.54;52.78
74921;BME280;63483;47.384;8.860;2024-01-30T09:35:28;96081.41;;;-4.33;52.43
74921;BME280;63483;47.384;8.860;2024-01-30T09:37:55;96085.94;;;-4.42;51.36
74921;BME280;63483;47.384;8.860;2024-01-30T09:40:20;96083.00;;;-4.31;51.52
74921;BME280;63483;47.384;8.860;2024-01-30T09:42:50;96083.31;;;-3.91;51.08
74921;BME280;63483;47.384;8.860;2024-01-30T09:45:17;96077.47;;;-3.47;54.93
74921;BME280;63483;47.384;8.860;2024-01-30T09:47:44;96076.34;;;-2.98;56.87
74921;BME280;63483;47.384;8.860;2024-01-30T09:50:11;96079.75;;;-2.54;57.69
74921;BME280;63483;47.384;8.860;2024-01-30T09:52:36;96083.47;;;-2.20;56.97
74921;BME280;63483;47.384;8.860;2024-01-30T09:55:03;96080.19;;;-1.84;57.14
74921;BME280;63483;47.384;8.860;2024-01-30T09:57:28;96082.28;;;-1.55;57.00
74921;BME280;63483;47.384;8.860;2024-01-30T09:59:54;96083.38;;;-1.22;59.42
74921;BME280;63483;47.384;8.860;2024-01-30T10:02:21;96083.56;;;-0.89;56.96
74921;BME280;63483;47.384;8.860;2024-01-30T10:04:50;96080.69;;;-0.65;57.01
74921;BME280;63483;47.384;8.860;2024-01-30T10:07:17;96084.09;;;-0.47;56.47
74921;BME280;63483;47.384;8.860;2024-01-30T10:09:42;96082.34;;;-0.29;55.54
74921;BME280;63483;47.384;8.860;2024-01-30T10:12:08;96083.97;;;-0.10;55.21
74921;BME280;63483;47.384;8.860;2024-01-30T10:14:40;96086.50;;;0.07;55.19
74921;BME280;63483;47.384;8.860;2024-01-30T10:17:08;96089.22;;;0.21;54.68
74921;BME280;63483;47.384;8.860;2024-01-30T10:19:33;96081.75;;;0.33;54.72
74921;BME280;63483;47.384;8.860;2024-01-30T10:22:03;96084.31;;;0.49;54.61
74921;BME280;63483;47.384;8.860;2024-01-30T10:24:28;96089.50;;;0.65;55.19
74921;BME280;63483;47.384;8.860;2024-01-30T10:26:57;96082.75;;;0.78;55.25
74921;BME280;63483;47.384;8.860;2024-01-30T10:29:22;96083.75;;;0.91;54.96
74921;BME280;63483;47.384;8.860;2024-01-30T10:32:17;96081.06;;;1.09;54.54
74921;BME280;63483;47.384;8.860;2024-01-30T10:34:43;96083.72;;;1.23;54.01
74921;BME280;63483;47.384;8.860;2024-01-30T10:37:09;96082.81;;;1.39;54.93
74921;BME280;63483;47.384;8.860;2024-01-30T10:39:41;96074.44;;;1.51;53.93
74921;BME280;63483;47.384;8.860;2024-01-30T10:42:15;96077.28;;;1.61;53.95
74921;BME280;63483;47.384;8.860;2024-01-30T10:45:05;96068.75;;;1.75;53.89
74921;BME280;63483;47.384;8.860;2024-01-30T10:47:34;96074.00;;;1.88;54.03
74921;BME280;63483;47.384;8.860;2024-01-30T10:50:00;96070.97;;;1.95;54.05
74921;BME280;63483;47.384;8.860;2024-01-30T10:52:27;96067.84;;;2.05;53.67
74921;BME280;63483;47.384;8.860;2024-01-30T10:54:55;96057.88;;;2.13;52.88
74921;BME280;63483;47.384;8.860;2024-01-30T10:57:23;96067.66;;;2.22;52.83
74921;BME280;63483;47.384;8.860;2024-01-30T10:59:49;96057.78;;;2.29;53.06
74921;BME280;63483;47.384;8.860;2024-01-30T11:02:16;96060.91;;;2.34;52.74
74921;BME280;63483;47.384;8.860;2024-01-30T11:04:42;96054.31;;;2.43;52.79
74921;BME280;63483;47.384;8.860;2024-01-30T11:07:15;96055.41;;;2.53;52.75
74921;BME280;63483;47.384;8.860;2024-01-30T11:09:48;96056.50;;;2.63;52.23
74921;BME280;63483;47.384;8.860;2024-01-30T11:12:14;96058.44;;;2.74;51.12
74921;BME280;63483;47.384;8.860;2024-01-30T11:14:39;96051.28;;;2.92;50.44
74921;BME280;63483;47.384;8.860;2024-01-30T11:17:05;96046.13;;;3.05;50.31
74921;BME280;63483;47.384;8.860;2024-01-30T11:19:31;96049.66;;;3.17;49.83
74921;BME280;63483;47.384;8.860;2024-01-30T11:21:57;96043.28;;;3.23;49.53
74921;BME280;63483;47.384;8.860;2024-01-30T11:24:25;96048.91;;;3.29;48.93
74921;BME280;63483;47.384;8.860;2024-01-30T11:27:01;96050.81;;;3.40;48.78
74921;BME280;63483;47.384;8.860;2024-01-30T11:29:28;96038.09;;;3.50;48.54
74921;BME280;63483;47.384;8.860;2024-01-30T11:31:58;96038.19;;;3.61;48.05
74921;BME280;63483;47.384;8.860;2024-01-30T11:34:24;96032.41;;;3.70;47.63
74921;BME280;63483;47.384;8.860;2024-01-30T11:36:56;96035.09;;;3.82;47.17
74921;BME280;63483;47.384;8.860;2024-01-30T11:39:27;96012.91;;;3.90;46.61
74921;BME280;63483;47.384;8.860;2024-01-30T11:41:54;96022.03;;;3.96;44.92
74921;BME280;63483;47.384;8.860;2024-01-30T11:44:20;96014.03;;;3.99;45.71
74921;BME280;63483;47.384;8.860;2024-01-30T11:46:50;96012.91;;;4.03;45.34
74921;BME280;63483;47.384;8.860;2024-01-30T11:49:16;96009.97;;;4.08;45.43
74921;BME280;63483;47.384;8.860;2024-01-30T11:51:42;96012.25;;;4.13;44.76
74921;BME280;63483;47.384;8.860;2024-01-30T11:54:08;96009.44;;;4.16;45.02
74921;BME280;63483;47.384;8.860;2024-01-30T11:56:33;96012.88;;;4.16;45.79
74921;BME280;63483;47.384;8.860;2024-01-30T11:58:59;96013.28;;;4.23;46.27
74921;BME280;63483;47.384;8.860;2024-01-30T12:01:26;96003.63;;;4.25;46.02
74921;BME280;63483;47.384;8.860;2024-01-30T12:03:52;96011.00;;;4.31;46.31
74921;BME280;63483;47.384;8.860;2024-01-30T12:06:17;96003.47;;;4.39;46.42
74921;BME280;63483;47.384;8.860;2024-01-30T12:08:43;96004.72;;;4.47;45.67
74921;BME280;63483;47.384;8.860;2024-01-30T12:11:09;96005.13;;;4.53;46.01
74921;BME280;63483;47.384;8.860;2024-01-30T12:13:34;96009.97;;;4.58;46.14
74921;BME280;63483;47.384;8.860;2024-01-30T12:16:00;96010.47;;;4.63;46.18
74921;BME280;63483;47.384;8.860;2024-01-30T12:18:26;95999.88;;;4.66;45.79
74921;BME280;63483;47.384;8.860;2024-01-30T12:21:01;96009.44;;;4.66;45.35
74921;BME280;63483;47.384;8.860;2024-01-30T12:23:27;96000.72;;;4.67;45.65
74921;BME280;63483;47.384;8.860;2024-01-30T12:25:53;96002.00;;;4.72;45.28
74921;BME280;63483;47.384;8.860;2024-01-30T12:28:19;96000.63;;;4.80;45.54
74921;BME280;63483;47.384;8.860;2024-01-30T12:30:45;96001.03;;;4.86;45.99
74921;BME280;63483;47.384;8.860;2024-01-30T12:33:16;95997.09;;;4.93;45.80
74921;BME280;63483;47.384;8.860;2024-01-30T12:35:45;96006.81;;;5.03;45.72
74921;BME280;63483;47.384;8.860;2024-01-30T12:38:10;96000.56;;;5.05;45.28
74921;BME280;63483;47.384;8.860;2024-01-30T12:40:36;95995.38;;;5.05;45.67
74921;BME280;63483;47.384;8.860;2024-01-30T12:43:02;95995.84;;;5.10;44.24
74921;BME280;63483;47.384;8.860;2024-01-30T12:45:28;96003.41;;;5.13;44.83
74921;BME280;63483;47.384;8.860;2024-01-30T12:47:53;96003.56;;;5.23;44.27
74921;BME280;63483;47.384;8.860;2024-01-30T12:50:18;95998.97;;;5.27;44.73
74921;BME280;63483;47.384;8.860;2024-01-30T12:52:44;95997.56;;;5.34;44.30
74921;BME280;63483;47.384;8.860;2024-01-30T12:55:10;96000.56;;;5.41;43.13